Joshua — FO4549 — position and weather

sailwx.info

Track history (hours):
 
Tides and Currents Weather Stations Pressure Air Temp Water Temp Dewpoint Dewpoint Depression Visibility Wind Speed Wind Dir Waves Ship Positions

Joshua

Last reported at 2017-Sep-21 18:46 UTC. Time now 2017-Sep-22 04:24 UTC.
Position N 46°09' W 001°16'.

Length 12 m.

Type: Sailing vessel. MMSI: 227524140.

Date/timePositionNaut miles runAvg speedWind from/ knotsBaromVisibWave heightAir tempDewpointWater temp
2017-Sep-21 18:46N 46°09' W 001°16'0 0.0
2017-Sep-21 18:30N 46°09' W 001°16'2 3.3
2017-Sep-21 18:00N 46°11' W 001°15'2 3.4
2017-Sep-21 17:30N 46°12' W 001°16'1 2.3
2017-Sep-21 17:00N 46°13' W 001°18'2 0.4
2017-Sep-21 11:32N 46°13' W 001°21'2 2.2
2017-Sep-21 10:50N 46°13' W 001°19'1 3.0
2017-Sep-21 10:28N 46°13' W 001°17'2 3.6
2017-Sep-21 09:59N 46°12' W 001°15'1 1.8
2017-Sep-21 09:30N 46°11' W 001°14'1 2.1
2017-Sep-21 09:00N 46°10' W 001°15'1 2.8
2017-Sep-21 08:30N 46°09' W 001°15'1 2.2
2017-Sep-21 08:00N 46°08' W 001°15'2 4.5
2017-Sep-21 07:30N 46°08' W 001°12'2 2.0
2017-Sep-21 06:41N 46°09' W 001°10'0 0.0
2017-Sep-21 06:29N 46°09' W 001°10'0 0.0
2017-Sep-21 05:59N 46°09' W 001°10'0 0.8
2017-Sep-21 05:30N 46°09' W 001°10'0 0.8
2017-Sep-21 04:58N 46°09' W 001°09'0 0.0
2017-Sep-20 17:59N 46°09' W 001°09'0 0.0
2017-Sep-20 17:29N 46°09' W 001°09'0 0.0
2017-Sep-20 16:59N 46°09' W 001°09'0 0.0
2017-Sep-20 16:29N 46°09' W 001°09'0 0.5
2017-Sep-20 15:58N 46°09' W 001°09'1 1.3
2017-Sep-20 15:30N 46°09' W 001°10'1 2.9
2017-Sep-20 15:00N 46°08' W 001°12'0 0.4
2017-Sep-20 14:00N 46°08' W 001°12'1 1.2
2017-Sep-20 13:30N 46°08' W 001°13'1 1.6
2017-Sep-20 12:59N 46°08' W 001°14'1 1.3
2017-Sep-20 12:27N 46°08' W 001°15'0 0.5
2017-Sep-20 12:00N 46°08' W 001°15'0 0.5
2017-Sep-20 11:30N 46°08' W 001°15'0 0.6
2017-Sep-20 11:00N 46°08' W 001°15'0 0.3
2017-Sep-20 10:30N 46°08' W 001°16'0 0.9
2017-Sep-20 09:57N 46°08' W 001°16'1 2.3
2017-Sep-20 09:30N 46°09' W 001°16'0 0.0
2017-Sep-19 17:46N 46°09' W 001°16'0 0.1
2017-Sep-19 17:30N 46°09' W 001°16'2 3.1
2017-Sep-19 17:00N 46°11' W 001°15'  
Track history (hours):
 
Tides and Currents Weather Stations Pressure Air Temp Water Temp Dewpoint Dewpoint Depression Visibility Wind Speed Wind Dir Waves Ship Positions

Joshua

Last reported at 2017-Sep-21 18:46 UTC. Time now 2017-Sep-22 04:24 UTC.
Position N 46°09' W 001°16'.

Length 12 m.

Type: Sailing vessel. MMSI: 227524140.

Date/timePositionNaut miles runAvg speedWind from/ knotsBaromVisibWave heightAir tempDewpointWater temp
2017-Sep-21 18:46N 46°09' W 001°16'0 0.0
2017-Sep-21 18:30N 46°09' W 001°16'2 3.3
2017-Sep-21 18:00N 46°11' W 001°15'2 3.4
2017-Sep-21 17:30N 46°12' W 001°16'1 2.3
2017-Sep-21 17:00N 46°13' W 001°18'2 0.4
2017-Sep-21 11:32N 46°13' W 001°21'2 2.2
2017-Sep-21 10:50N 46°13' W 001°19'1 3.0
2017-Sep-21 10:28N 46°13' W 001°17'2 3.6
2017-Sep-21 09:59N 46°12' W 001°15'1 1.8
2017-Sep-21 09:30N 46°11' W 001°14'1 2.1
2017-Sep-21 09:00N 46°10' W 001°15'1 2.8
2017-Sep-21 08:30N 46°09' W 001°15'1 2.2
2017-Sep-21 08:00N 46°08' W 001°15'2 4.5
2017-Sep-21 07:30N 46°08' W 001°12'2 2.0
2017-Sep-21 06:41N 46°09' W 001°10'0 0.0
2017-Sep-21 06:29N 46°09' W 001°10'0 0.0
2017-Sep-21 05:59N 46°09' W 001°10'0 0.8
2017-Sep-21 05:30N 46°09' W 001°10'0 0.8
2017-Sep-21 04:58N 46°09' W 001°09'0 0.0
2017-Sep-20 17:59N 46°09' W 001°09'0 0.0
2017-Sep-20 17:29N 46°09' W 001°09'0 0.0
2017-Sep-20 16:59N 46°09' W 001°09'0 0.0
2017-Sep-20 16:29N 46°09' W 001°09'0 0.5
2017-Sep-20 15:58N 46°09' W 001°09'1 1.3
2017-Sep-20 15:30N 46°09' W 001°10'1 2.9
2017-Sep-20 15:00N 46°08' W 001°12'0 0.4
2017-Sep-20 14:00N 46°08' W 001°12'1 1.2
2017-Sep-20 13:30N 46°08' W 001°13'1 1.6
2017-Sep-20 12:59N 46°08' W 001°14'1 1.3
2017-Sep-20 12:27N 46°08' W 001°15'0 0.5
2017-Sep-20 12:00N 46°08' W 001°15'0 0.5
2017-Sep-20 11:30N 46°08' W 001°15'0 0.6
2017-Sep-20 11:00N 46°08' W 001°15'0 0.3
2017-Sep-20 10:30N 46°08' W 001°16'0 0.9
2017-Sep-20 09:57N 46°08' W 001°16'1 2.3
2017-Sep-20 09:30N 46°09' W 001°16'0 0.0
2017-Sep-19 17:46N 46°09' W 001°16'0 0.1
2017-Sep-19 17:30N 46°09' W 001°16'2 3.1
2017-Sep-19 17:00N 46°11' W 001°15'  

Dump ship's entire track history